Time;durP1;ratioP1;P1;durP2;ratioP2;P2;SDS_P1;SDS_P2;PMS_P1;PMS_P2;Temp;Humidity;BMP_temperature;BMP_pressure;BME280_temperature;BME280_humidity;BME280_pressure;Samples;Min_cycle;Max_cycle;Signal;HPM_P1;HPM_P2
2022/07/24 00:01:57;;;;;;;22.50;20.00;;;;;;;20.68;77.70;100049.84;107878;1264;314644;-72
2022/07/24 00:04:30;;;;;;;22.90;20.00;;;;;;;20.69;77.85;100047.65;107369;1263;96311;-72
2022/07/24 00:07:07;;;;;;;29.10;20.80;;;;;;;20.71;77.68;100048.91;107848;1263;111440;-74
2022/07/24 00:09:39;;;;;;;23.70;19.90;;;;;;;20.69;77.81;100049.55;106623;1263;139287;-75
2022/07/24 00:12:12;;;;;;;22.70;20.20;;;;;;;20.67;77.82;100049.72;106838;1263;108831;-72
2022/07/24 00:14:44;;;;;;;24.00;19.90;;;;;;;20.66;77.82;100049.30;108103;1264;138912;-72
2022/07/24 00:17:17;;;;;;;24.40;19.80;;;;;;;20.65;77.87;100052.02;108206;1264;94685;-73
2022/07/24 00:19:49;;;;;;;24.70;19.30;;;;;;;20.64;77.77;100050.80;108194;1263;110145;-72
2022/07/24 00:22:23;;;;;;;22.70;20.30;;;;;;;20.63;77.91;100054.91;108197;1264;106658;-72
2022/07/24 00:24:55;;;;;;;24.60;20.00;;;;;;;20.63;77.99;100055.71;108185;1263;107565;-73
2022/07/24 00:27:28;;;;;;;27.50;21.50;;;;;;;20.61;78.12;100057.04;107337;1263;139905;-74
2022/07/24 00:30:00;;;;;;;24.30;20.30;;;;;;;20.61;77.91;100057.25;108021;1264;94846;-73
2022/07/24 00:32:33;;;;;;;23.80;20.90;;;;;;;20.60;77.95;100053.30;108036;1263;139549;-73
2022/07/24 00:35:07;;;;;;;23.80;21.00;;;;;;;20.59;77.86;100053.91;107879;1263;108036;-72
2022/07/24 00:37:39;;;;;;;23.20;20.30;;;;;;;20.57;77.82;100053.85;108147;1262;109043;-72
2022/07/24 00:40:12;;;;;;;24.00;20.90;;;;;;;20.57;77.85;100054.23;108114;1263;138622;-72
2022/07/24 00:42:45;;;;;;;25.50;21.20;;;;;;;20.56;78.04;100058.91;108094;1264;94944;-72
2022/07/24 00:45:17;;;;;;;28.60;21.10;;;;;;;20.56;77.97;100059.80;107044;1262;138473;-72
2022/07/24 00:47:55;;;;;;;27.00;21.10;;;;;;;20.54;78.21;100060.27;106888;1263;109101;-72
2022/07/24 00:50:29;;;;;;;23.30;20.80;;;;;;;20.53;78.12;100062.65;107349;1264;138893;-74
2022/07/24 00:53:02;;;;;;;26.70;20.60;;;;;;;20.51;78.06;100066.66;106986;1264;96572;-73
2022/07/24 00:55:35;;;;;;;25.00;20.30;;;;;;;20.48;78.03;100073.58;106926;1263;96469;-73
2022/07/24 00:58:08;;;;;;;23.40;20.40;;;;;;;20.45;78.11;100075.23;106660;1264;138682;-73
2022/07/24 01:00:41;;;;;;;24.30;21.60;;;;;;;20.42;78.11;100081.63;106943;1264;108947;-73
2022/07/24 01:03:13;;;;;;;23.60;21.00;;;;;;;20.40;78.18;100082.31;106780;1263;139390;-72
2022/07/24 01:05:45;;;;;;;22.70;20.50;;;;;;;20.39;78.44;100082.05;108229;1264;94389;-73
2022/07/24 01:08:18;;;;;;;24.00;19.30;;;;;;;20.38;78.42;100079.95;108108;1264;138605;-73
2022/07/24 01:10:54;;;;;;;22.30;19.90;;;;;;;20.39;78.50;100078.98;108223;1263;109955;-73
2022/07/24 01:13:26;;;;;;;23.10;20.70;;;;;;;20.40;78.53;100077.70;107927;1264;108733;-73
2022/07/24 01:15:59;;;;;;;25.80;19.80;;;;;;;20.41;78.52;100080.65;106649;1264;139807;-73
2022/07/24 01:18:32;;;;;;;22.70;18.80;;;;;;;20.40;78.39;100081.02;108196;1263;94572;-72
2022/07/24 01:21:05;;;;;;;24.40;19.70;;;;;;;20.40;78.40;100088.81;107558;1263;138989;-72
2022/07/24 01:23:38;;;;;;;23.40;17.20;;;;;;;20.42;78.15;100089.96;106754;1264;111101;-73
2022/07/24 01:26:11;;;;;;;18.30;15.10;;;;;;;20.36;77.18;100093.88;106872;1264;138851;-72
2022/07/24 01:28:44;;;;;;;15.50;11.70;;;;;;;20.28;76.65;100102.14;106863;1264;108828;-72
2022/07/24 01:31:16;;;;;;;13.30;9.70;;;;;;;20.16;75.67;100103.52;106902;1264;96880;-72
2022/07/24 01:33:49;;;;;;;11.50;8.40;;;;;;;20.05;74.92;100102.20;107150;1264;139225;-72
2022/07/24 01:36:22;;;;;;;8.30;6.50;;;;;;;19.93;74.17;100105.58;108230;1263;111188;-73
2022/07/24 01:38:54;;;;;;;9.30;6.10;;;;;;;19.82;73.53;100107.80;107664;1263;138378;-73
2022/07/24 01:41:27;;;;;;;7.20;5.10;;;;;;;19.71;73.07;100111.95;106949;1264;109080;-72
2022/07/24 01:44:00;;;;;;;10.70;5.50;;;;;;;19.62;72.77;100116.64;108099;1262;138630;-72
2022/07/24 01:46:32;;;;;;;6.50;4.80;;;;;;;19.55;72.48;100113.43;107817;1263;96378;-72
2022/07/24 01:49:05;;;;;;;5.20;4.40;;;;;;;19.48;72.25;100113.26;107002;1261;109959;-73
2022/07/24 01:51:38;;;;;;;9.10;3.90;;;;;;;19.39;71.99;100110.34;108046;1262;138585;-73
2022/07/24 01:54:11;;;;;;;4.30;3.30;;;;;;;19.31;71.70;100115.46;108198;1264;108815;-73
2022/07/24 01:56:43;;;;;;;6.30;3.40;;;;;;;19.24;71.57;100115.27;108106;1263;138505;-73
2022/07/24 01:59:15;;;;;;;4.60;3.60;;;;;;;19.18;71.41;100113.20;108254;1263;94761;-73
2022/07/24 02:01:48;;;;;;;7.40;3.60;;;;;;;19.12;71.44;100112.94;108281;1251;111074;-72
2022/07/24 02:04:21;;;;;;;4.50;3.10;;;;;;;19.08;71.42;100115.38;106450;1264;111446;-72
2022/07/24 02:06:54;;;;;;;6.30;3.40;;;;;;;19.04;71.36;100127.41;106712;1264;108670;-73
2022/07/24 02:09:26;;;;;;;5.10;3.20;;;;;;;19.00;71.36;100127.54;108077;1264;138494;-72
2022/07/24 02:11:58;;;;;;;4.00;3.10;;;;;;;18.95;71.24;100128.42;106851;1264;96382;-72
2022/07/24 02:14:31;;;;;;;9.10;3.60;;;;;;;18.85;71.16;100128.35;107113;1264;139003;-72
2022/07/24 02:17:04;;;;;;;5.20;3.00;;;;;;;18.79;71.29;100130.37;106849;1264;108470;-74
2022/07/24 02:19:36;;;;;;;5.40;3.40;;;;;;;18.73;71.00;100130.45;108136;1264;108013;-73
2022/07/24 02:22:09;;;;;;;6.50;2.90;;;;;;;18.67;71.06;100130.27;108029;1264;139593;-73
2022/07/24 02:24:41;;;;;;;7.50;3.20;;;;;;;18.63;71.28;100130.54;108219;1264;94682;-72
2022/07/24 02:27:15;;;;;;;5.90;3.30;;;;;;;18.61;71.28;100129.45;107454;1264;138600;-71
2022/07/24 02:29:47;;;;;;;6.70;3.40;;;;;;;18.59;71.28;100133.25;106771;1264;108334;-72
2022/07/24 02:32:19;;;;;;;10.30;3.00;;;;;;;18.58;71.39;100128.39;106639;1264;138484;-72
2022/07/24 02:34:52;;;;;;;5.30;3.10;;;;;;;18.59;71.53;100129.79;107486;1263;96468;-73
2022/07/24 02:37:25;;;;;;;5.60;3.30;;;;;;;18.61;71.59;100134.02;106623;1264;96479;-71
2022/07/24 02:39:57;;;;;;;6.70;3.00;;;;;;;18.61;71.44;100134.73;106805;1264;139643;-72
2022/07/24 02:42:31;;;;;;;5.90;2.80;;;;;;;18.59;71.30;100135.36;106940;1264;108925;-72
2022/07/24 02:45:04;;;;;;;5.40;3.30;;;;;;;18.57;71.33;100133.96;106564;1264;138727;-72
2022/07/24 02:47:36;;;;;;;5.00;3.20;;;;;;;18.56;71.50;100129.64;108191;1263;94562;-72
2022/07/24 02:50:09;;;;;;;4.70;3.00;;;;;;;18.56;71.44;100124.33;108067;1264;138681;-72
2022/07/24 02:52:41;;;;;;;5.10;2.90;;;;;;;18.55;71.36;100127.23;108105;1264;111288;-72
2022/07/24 02:55:14;;;;;;;5.40;2.80;;;;;;;18.52;71.43;100126.36;108141;1263;109389;-72
2022/07/24 02:57:46;;;;;;;6.60;2.90;;;;;;;18.52;71.20;100122.33;106856;1264;139206;-71
2022/07/24 03:00:19;;;;;;;7.00;2.90;;;;;;;18.51;71.23;100127.65;108197;1264;94971;-72
2022/07/24 03:02:52;;;;;;;6.60;3.00;;;;;;;18.50;71.11;100129.85;108002;1264;138306;-72
2022/07/24 03:05:24;;;;;;;4.00;2.90;;;;;;;18.48;71.11;100127.84;108087;1264;111157;-72
2022/07/24 03:07:56;;;;;;;5.00;2.60;;;;;;;18.47;70.98;100133.74;106908;1265;139945;-71
2022/07/24 03:10:29;;;;;;;7.30;2.70;;;;;;;18.45;70.82;100135.96;106721;1265;109920;-74
2022/07/24 03:13:01;;;;;;;4.90;2.50;;;;;;;18.44;70.66;100137.83;106602;1265;96503;-72
2022/07/24 03:15:35;;;;;;;8.10;2.60;;;;;;;18.42;70.74;100139.87;108055;1264;140662;-72
2022/07/24 03:18:07;;;;;;;7.20;2.70;;;;;;;18.42;70.47;100143.77;107980;1264;112247;-72
2022/07/24 03:20:52;;;;;;;7.30;3.10;;;;;;;18.42;70.71;100147.11;107996;1264;139138;-73
2022/07/24 03:23:24;;;;;;;4.00;2.80;;;;;;;18.42;70.69;100150.94;108125;1264;107702;-72
2022/07/24 03:25:57;;;;;;;4.60;2.80;;;;;;;18.43;70.79;100156.35;106620;1265;139052;-71
2022/07/24 03:28:30;;;;;;;4.00;2.90;;;;;;;18.44;70.70;100161.56;106801;1264;96471;-71
2022/07/24 03:31:03;;;;;;;6.50;2.50;;;;;;;18.44;70.57;100159.13;108136;1263;111111;-72
2022/07/24 03:33:35;;;;;;;8.20;3.00;;;;;;;18.44;70.50;100159.48;108040;1264;139341;-72
2022/07/24 03:36:09;;;;;;;8.50;3.10;;;;;;;18.45;70.47;100157.12;107731;1264;107919;-72
2022/07/24 03:38:41;;;;;;;5.50;2.80;;;;;;;18.43;70.29;100162.48;108004;1264;138377;-72
2022/07/24 03:41:14;;;;;;;6.10;2.50;;;;;;;18.44;70.40;100165.81;108152;1264;94757;-73
2022/07/24 03:43:46;;;;;;;4.80;2.80;;;;;;;18.46;70.35;100166.54;106699;1267;111077;-72
2022/07/24 03:46:18;;;;;;;4.70;3.00;;;;;;;18.46;70.27;100172.17;106779;1264;108893;-72
2022/07/24 03:48:51;;;;;;;5.10;3.40;;;;;;;18.46;70.36;100170.61;108094;1264;108424;-73
2022/07/24 03:51:23;;;;;;;6.90;3.20;;;;;;;18.48;70.56;100171.33;106756;1264;138953;-72
2022/07/24 03:53:58;;;;;;;5.60;3.50;;;;;;;18.49;70.51;100173.59;106704;1264;96550;-72
2022/07/24 03:56:30;;;;;;;6.30;2.80;;;;;;;18.50;70.68;100170.70;107978;1264;138634;-72
2022/07/24 03:59:04;;;;;;;7.40;3.80;;;;;;;18.53;70.80;100174.17;108110;1264;108871;-72
2022/07/24 04:01:37;;;;;;;8.10;3.60;;;;;;;18.54;70.70;100176.73;108075;1264;107734;-73
2022/07/24 04:04:10;;;;;;;4.80;3.00;;;;;;;18.56;70.69;100173.81;107975;1264;138889;-73
2022/07/24 04:06:42;;;;;;;7.30;3.30;;;;;;;18.56;70.44;100176.29;107045;1264;96462;-72
2022/07/24 04:09:15;;;;;;;4.80;2.70;;;;;;;18.57;70.34;100181.70;106551;1264;139395;-72
2022/07/24 04:12:01;;;;;;;;;;;;;;;18.59;70.40;100179.80;106760;1264;108173;-72
2022/07/24 04:14:33;;;;;;;6.50;3.10;;;;;;;18.58;70.28;100185.62;106593;1265;125300;-72
2022/07/24 04:17:06;;;;;;;5.80;3.50;;;;;;;18.60;70.22;100185.70;108026;1264;95087;-72
2022/07/24 04:19:38;;;;;;;6.30;3.60;;;;;;;18.60;70.22;100187.29;108113;1265;94745;-73
2022/07/24 04:22:10;;;;;;;5.20;3.60;;;;;;;18.61;70.24;100185.30;107879;1264;140038;-73
2022/07/24 04:24:43;;;;;;;7.60;3.00;;;;;;;18.62;70.09;100189.96;106722;1265;108584;-73
2022/07/24 04:27:15;;;;;;;6.20;3.60;;;;;;;18.61;70.13;100188.64;106402;1265;138481;-72
2022/07/24 04:29:47;;;;;;;8.50;3.50;;;;;;;18.62;70.16;100188.38;106610;1264;96459;-72
2022/07/24 04:32:20;;;;;;;7.30;3.20;;;;;;;18.62;70.27;100191.18;106605;1264;138609;-72
2022/07/24 04:34:53;;;;;;;6.90;3.20;;;;;;;18.62;70.29;100188.52;108150;1264;109972;-73
2022/07/24 04:37:25;;;;;;;6.00;3.20;;;;;;;18.61;70.05;100190.73;108125;1265;107704;-73
2022/07/24 04:39:57;;;;;;;7.00;3.40;;;;;;;18.63;70.14;100193.77;107723;1265;139070;-72
2022/07/24 04:42:30;;;;;;;8.10;3.30;;;;;;;18.66;70.09;100193.25;106946;1264;96478;-73
2022/07/24 04:45:03;;;;;;;6.20;3.10;;;;;;;18.69;70.01;100200.45;106654;1265;138596;-73
2022/07/24 04:47:36;;;;;;;7.20;3.20;;;;;;;18.71;69.88;100198.55;107542;1264;111286;-73
2022/07/24 04:50:10;;;;;;;7.90;3.30;;;;;;;18.72;69.92;100201.15;106641;1264;138799;-71
2022/07/24 04:52:43;;;;;;;;;;;;;;;18.76;69.96;100203.16;108104;1264;108897;-72
2022/07/24 04:55:16;;;;;;;13.00;3.90;;;;;;;18.79;69.73;100203.34;106630;1265;96507;-72
2022/07/24 04:57:49;;;;;;;8.80;3.20;;;;;;;18.82;69.85;100201.84;107892;1264;138395;-72
2022/07/24 05:00:22;;;;;;;6.60;3.70;;;;;;;18.89;69.80;100200.52;106707;1264;111050;-72
2022/07/24 05:02:54;;;;;;;7.20;3.70;;;;;;;18.97;69.77;100202.61;106600;1265;138592;-73
2022/07/24 05:05:27;;;;;;;7.20;3.90;;;;;;;19.07;69.68;100203.70;106717;1265;108906;-72
2022/07/24 05:07:59;;;;;;;7.60;3.60;;;;;;;19.17;69.53;100205.48;106829;1265;138724;-71
2022/07/24 05:10:32;;;;;;;7.50;3.50;;;;;;;19.30;69.52;100205.79;106767;1265;96458;-72
2022/07/24 05:13:05;;;;;;;10.10;3.60;;;;;;;19.44;69.00;100206.27;108071;1264;111266;-73
2022/07/24 05:15:37;;;;;;;7.40;3.60;;;;;;;19.63;68.69;100207.27;108004;1265;138599;-72
2022/07/24 05:18:10;;;;;;;10.80;3.40;;;;;;;19.79;68.15;100213.85;108068;1265;107680;-73
2022/07/24 05:20:42;;;;;;;6.80;2.90;;;;;;;20.01;67.68;100211.23;107967;1265;139382;-72
2022/07/24 05:23:14;;;;;;;6.10;3.00;;;;;;;20.21;66.97;100213.50;108139;1265;95918;-73
2022/07/24 05:25:46;;;;;;;6.40;3.10;;;;;;;20.37;66.07;100215.14;108164;1265;111079;-73
2022/07/24 05:28:20;;;;;;;13.30;3.30;;;;;;;20.58;65.64;100211.14;108017;1265;108830;-72
2022/07/24 05:30:53;;;;;;;9.50;3.10;;;;;;;20.81;65.32;100214.36;108141;1264;108816;-73
2022/07/24 05:33:25;;;;;;;6.40;2.50;;;;;;;21.15;64.75;100217.10;108067;1264;138636;-73
2022/07/24 05:35:58;;;;;;;4.40;2.70;;;;;;;21.68;64.12;100216.20;108192;1265;94864;-72
2022/07/24 05:38:30;;;;;;;6.60;2.30;;;;;;;22.72;62.43;100210.20;108025;1265;138015;-73
2022/07/24 05:41:03;;;;;;;5.60;1.90;;;;;;;24.19;59.72;100207.98;108053;1265;109099;-73
2022/07/24 05:43:35;;;;;;;5.90;2.00;;;;;;;25.90;56.70;100209.11;108121;1264;108992;-73
2022/07/24 05:46:08;;;;;;;4.90;1.90;;;;;;;27.41;53.48;100202.05;107941;1265;138227;-74
2022/07/24 05:48:46;;;;;;;7.30;2.50;;;;;;;28.91;50.88;100197.41;106662;1265;96468;-73
2022/07/24 05:51:18;;;;;;;5.00;2.50;;;;;;;30.29;48.44;100190.44;106714;1264;138397;-72
2022/07/24 05:53:51;;;;;;;10.00;2.10;;;;;;;31.56;46.41;100190.27;106692;1264;107935;-73
2022/07/24 05:56:24;;;;;;;5.40;1.40;;;;;;;32.77;44.58;100191.91;106611;1265;138333;-73
2022/07/24 05:58:57;;;;;;;5.70;1.50;;;;;;;33.79;41.68;100192.35;108055;1265;94759;-73
2022/07/24 06:01:29;;;;;;;6.60;1.60;;;;;;;34.53;39.82;100187.73;108080;1264;94979;-74
2022/07/24 06:04:01;;;;;;;5.20;1.20;;;;;;;35.18;37.87;100194.56;107362;1265;137805;-74
2022/07/24 06:06:34;;;;;;;3.10;1.50;;;;;;;35.82;36.66;100199.27;106623;1265;108660;-73
2022/07/24 06:09:06;;;;;;;6.80;1.60;;;;;;;36.59;35.93;100198.62;106478;1264;137995;-73
2022/07/24 06:11:39;;;;;;;3.80;1.50;;;;;;;37.17;33.82;100199.98;106647;1265;96562;-74
2022/07/24 06:14:14;;;;;;;4.20;1.30;;;;;;;37.35;32.28;100200.45;106449;1265;137726;-73
2022/07/24 06:16:46;;;;;;;2.70;1.00;;;;;;;37.50;32.23;100203.13;106623;1265;110544;-73
2022/07/24 06:19:19;;;;;;;3.80;1.10;;;;;;;37.59;30.91;100203.35;106623;1265;108887;-73
2022/07/24 06:21:51;;;;;;;4.80;1.60;;;;;;;37.45;31.36;100202.92;106435;1267;138146;-73
2022/07/24 06:24:24;;;;;;;5.80;1.40;;;;;;;37.75;30.69;100203.70;106716;1265;96593;-73
2022/07/24 06:26:56;;;;;;;4.00;2.10;;;;;;;37.48;29.54;100205.67;106651;1265;137887;-73
2022/07/24 06:29:44;;;;;;;7.10;1.80;;;;;;;37.03;29.37;100203.16;106754;1265;111295;-73
2022/07/24 06:32:17;;;;;;;2.70;1.20;;;;;;;37.13;29.33;100204.89;106848;1265;138056;-74
2022/07/24 06:34:49;;;;;;;6.30;1.50;;;;;;;37.31;29.15;100208.48;107779;1264;108706;-74
2022/07/24 06:37:22;;;;;;;4.00;1.40;;;;;;;37.54;28.34;100206.89;108167;1265;96150;-73
2022/07/24 06:39:54;;;;;;;4.70;1.30;;;;;;;37.79;27.83;100206.58;108020;1265;137752;-73
2022/07/24 06:42:26;;;;;;;4.90;1.40;;;;;;;37.85;27.52;100210.00;108177;1264;112144;-73
2022/07/24 06:44:59;;;;;;;2.80;1.00;;;;;;;37.79;26.98;100208.60;108058;1265;137933;-73
2022/07/24 06:47:31;;;;;;;5.30;1.40;;;;;;;37.95;26.38;100213.34;108110;1264;109051;-73
2022/07/24 06:50:04;;;;;;;3.10;1.00;;;;;;;37.88;26.09;100211.60;108090;1264;138172;-73
2022/07/24 06:52:36;;;;;;;2.70;1.00;;;;;;;37.86;25.98;100207.25;108200;1264;96287;-73
2022/07/24 06:55:11;;;;;;;3.40;0.90;;;;;;;37.85;25.32;100212.59;108175;1265;111144;-74
2022/07/24 06:57:43;;;;;;;3.00;1.50;;;;;;;37.92;25.30;100214.51;107356;1265;137840;-73
2022/07/24 07:00:16;;;;;;;3.80;1.10;;;;;;;38.28;25.63;100217.16;106596;1265;108706;-73
2022/07/24 07:02:49;;;;;;;7.00;1.20;;;;;;;38.55;24.81;100217.98;106572;1265;138101;-74
2022/07/24 07:05:23;;;;;;;5.10;1.20;;;;;;;38.65;24.74;100220.61;106732;1265;98112;-73
2022/07/24 07:07:56;;;;;;;3.00;0.80;;;;;;;38.88;24.63;100218.70;106640;1264;137811;-73
2022/07/24 07:10:28;;;;;;;3.00;1.10;;;;;;;39.07;24.17;100216.48;106731;1265;108944;-74
2022/07/24 07:13:01;;;;;;;3.00;1.20;;;;;;;39.09;23.92;100218.06;106716;1264;109096;-74
2022/07/24 07:15:33;;;;;;;5.20;1.20;;;;;;;39.22;23.56;100220.31;106562;1265;138524;-73
2022/07/24 07:18:06;;;;;;;2.00;1.20;;;;;;;39.33;23.24;100215.48;106659;1264;97824;-73
2022/07/24 07:20:38;;;;;;;5.50;1.10;;;;;;;39.41;23.20;100222.21;106740;1265;138310;-74
2022/07/24 07:23:11;;;;;;;3.20;1.00;;;;;;;39.53;23.10;100222.02;106650;1265;108955;-74
2022/07/24 07:25:43;;;;;;;2.90;1.00;;;;;;;39.69;22.82;100223.19;106622;1265;108730;-74
2022/07/24 07:28:15;;;;;;;6.20;1.00;;;;;;;39.82;22.77;100222.80;106514;1265;139624;-73
2022/07/24 07:30:48;;;;;;;2.50;1.10;;;;;;;39.80;22.35;100226.19;106659;1265;97761;-74
2022/07/24 07:33:21;;;;;;;2.60;1.00;;;;;;;39.26;21.99;100222.16;106517;1265;138235;-74
2022/07/24 07:35:53;;;;;;;5.00;1.10;;;;;;;38.93;22.69;100226.27;106581;1265;109041;-74
2022/07/24 07:38:25;;;;;;;2.90;1.00;;;;;;;38.93;22.76;100232.13;106480;1265;137929;-75
2022/07/24 07:40:58;;;;;;;2.40;0.90;;;;;;;39.11;22.32;100227.39;106640;1265;97841;-73
2022/07/24 07:43:30;;;;;;;2.70;1.00;;;;;;;39.43;22.35;100235.25;106651;1265;97911;-74
2022/07/24 07:46:03;;;;;;;3.00;1.20;;;;;;;39.77;22.27;100229.77;106542;1265;137641;-73
2022/07/24 07:48:36;;;;;;;3.70;1.10;;;;;;;39.62;21.91;100233.02;106603;1265;108968;-75
2022/07/24 07:51:09;;;;;;;3.60;1.20;;;;;;;39.40;21.80;100236.39;106568;1264;137979;-73
2022/07/24 07:53:41;;;;;;;5.80;1.30;;;;;;;39.50;22.13;100242.13;106503;1265;97908;-73
2022/07/24 07:56:15;;;;;;;4.80;1.30;;;;;;;39.54;22.22;100240.88;106589;1265;137852;-74
2022/07/24 07:58:47;;;;;;;1.20;1.00;;;;;;;39.32;22.04;100247.38;106653;1265;112796;-73
2022/07/24 08:01:21;;;;;;;1.40;1.10;;;;;;;38.69;22.22;100254.85;106603;1265;107937;-74
2022/07/24 08:03:54;;;;;;;4.10;1.50;;;;;;;38.43;22.53;100257.52;106425;1265;138111;-73
2022/07/24 08:06:26;;;;;;;4.10;1.80;;;;;;;37.73;22.69;100256.85;106592;1265;97823;-73
2022/07/24 08:09:01;;;;;;;2.70;1.40;;;;;;;36.45;23.09;100252.81;106607;1265;138310;-73
2022/07/24 08:11:35;;;;;;;1.90;1.40;;;;;;;35.00;24.10;100264.39;106691;1265;112640;-73
2022/07/24 08:14:08;;;;;;;1.80;1.40;;;;;;;33.99;25.20;100267.78;106668;1264;138843;-72
2022/07/24 08:16:40;;;;;;;6.00;1.40;;;;;;;32.99;26.23;100265.21;106804;1265;108508;-73
2022/07/24 08:19:13;;;;;;;2.30;1.30;;;;;;;33.09;26.79;100267.14;106739;1265;97866;-73
2022/07/24 08:21:46;;;;;;;7.70;1.60;;;;;;;33.53;26.81;100270.13;106762;1264;137973;-73
2022/07/24 08:24:20;;;;;;;5.80;1.80;;;;;;;33.25;27.39;100270.32;107154;1264;111146;-73
2022/07/24 08:26:53;;;;;;;5.20;1.90;;;;;;;32.89;27.70;100274.88;107644;1264;137983;-73
2022/07/24 08:29:25;;;;;;;6.00;2.10;;;;;;;31.99;27.91;100278.75;106893;1264;108438;-72
2022/07/24 08:31:57;;;;;;;4.50;1.90;;;;;;;31.13;28.61;100281.54;108065;1263;138758;-73
2022/07/24 08:34:29;;;;;;;3.20;1.80;;;;;;;30.31;29.61;100291.27;108131;1264;96481;-73
2022/07/24 08:37:02;;;;;;;2.40;1.70;;;;;;;29.71;30.69;100289.41;107997;1265;112684;-73
2022/07/24 08:39:35;;;;;;;5.60;1.80;;;;;;;29.74;31.55;100292.46;108035;1264;138423;-73
2022/07/24 08:42:09;;;;;;;2.40;1.70;;;;;;;29.74;31.55;100292.10;108115;1265;107556;-73
2022/07/24 08:44:42;;;;;;;2.70;1.50;;;;;;;29.17;31.87;100293.23;108038;1264;139007;-73
2022/07/24 08:47:15;;;;;;;3.90;3.00;;;;;;;28.44;32.58;100300.95;108133;1265;96231;-73
2022/07/24 08:49:50;;;;;;;3.40;1.70;;;;;;;28.09;33.53;100304.48;107269;1265;112391;-72
2022/07/24 08:52:24;;;;;;;3.00;1.80;;;;;;;28.27;33.85;100300.30;106938;1264;109255;-73
2022/07/24 08:54:57;;;;;;;5.90;2.60;;;;;;;28.09;34.13;100306.66;108124;1265;108944;-74
2022/07/24 08:57:29;;;;;;;2.00;1.50;;;;;;;27.70;34.31;100304.79;108007;1264;137880;-73
2022/07/24 09:00:02;;;;;;;3.20;1.80;;;;;;;27.30;35.06;100299.95;108164;1264;96000;-74
2022/07/24 09:02:37;;;;;;;3.00;2.00;;;;;;;26.86;35.56;100305.39;108060;1264;138999;-74
2022/07/24 09:05:10;;;;;;;4.00;1.70;;;;;;;26.43;36.31;100306.11;108216;1264;108831;-74
2022/07/24 09:07:43;;;;;;;3.50;1.60;;;;;;;26.01;36.64;100305.69;108207;1264;108870;-74
2022/07/24 09:10:18;;;;;;;6.70;2.10;;;;;;;25.58;37.61;100307.60;107621;1264;138129;-74
2022/07/24 09:12:50;;;;;;;2.30;1.60;;;;;;;25.30;38.53;100307.61;106595;1265;97803;-74
2022/07/24 09:15:26;;;;;;;3.10;1.90;;;;;;;25.12;38.65;100312.85;106557;1265;138608;-73
2022/07/24 09:18:00;;;;;;;3.40;1.90;;;;;;;25.02;39.18;100310.75;108125;1264;108798;-75
2022/07/24 09:20:38;;;;;;;1.40;1.30;;;;;;;24.94;39.49;100311.70;107424;1265;138055;-74
2022/07/24 09:23:10;;;;;;;2.50;1.60;;;;;;;25.12;39.85;100309.11;106662;1265;97855;-73
2022/07/24 09:25:50;;;;;;;1.90;1.40;;;;;;;25.26;39.56;100311.83;106808;1265;98112;-73
2022/07/24 09:28:23;;;;;;;2.00;1.10;;;;;;;25.23;39.46;100311.95;106865;1265;112535;-73
2022/07/24 09:31:01;;;;;;;1.50;1.10;;;;;;;25.11;39.67;100317.00;108170;1265;109002;-73
2022/07/24 09:33:37;;;;;;;4.80;1.20;;;;;;;25.02;40.00;100310.91;106768;1264;138926;-73
2022/07/24 09:36:15;;;;;;;3.40;1.20;;;;;;;24.97;40.17;100319.91;106795;1264;97841;-73
2022/07/24 09:38:51;;;;;;;3.40;1.20;;;;;;;24.89;40.19;100316.71;106691;1264;137798;-71
2022/07/24 09:41:25;;;;;;;4.50;1.50;;;;;;;24.66;40.36;100320.73;107122;1265;112361;-74
2022/07/24 09:44:02;;;;;;;1.60;1.40;;;;;;;24.42;40.87;100323.23;107924;1265;139637;-73
2022/07/24 09:46:55;;;;;;;3.40;1.40;;;;;;;24.14;41.25;100330.50;107045;1265;108083;-72
2022/07/24 09:49:29;;;;;;;4.10;1.80;;;;;;;23.94;41.98;100334.38;107962;1266;96053;-73
2022/07/24 09:52:17;;;;;;;7.00;2.00;;;;;;;23.87;42.55;100333.70;107860;1266;137624;-73
2022/07/24 09:54:53;;;;;;;4.00;2.10;;;;;;;23.82;42.84;100334.52;108176;1265;111434;-74
2022/07/24 09:57:27;;;;;;;1.50;1.40;;;;;;;23.79;43.22;100331.23;108020;1264;138330;-75
2022/07/24 10:00:05;;;;;;;3.20;1.60;;;;;;;23.79;43.46;100333.48;108007;1265;108116;-73
2022/07/24 10:02:46;;;;;;;1.60;1.30;;;;;;;23.77;43.58;100332.80;107676;1264;139508;-74
2022/07/24 10:05:21;;;;;;;2.30;1.60;;;;;;;23.62;43.66;100333.96;108153;1265;96161;-73
2022/07/24 10:08:00;;;;;;;1.80;1.60;;;;;;;23.47;44.20;100337.79;106700;1264;138932;-70
2022/07/24 10:10:35;;;;;;;2.10;1.40;;;;;;;23.41;44.50;100339.20;108137;1264;108243;-73
2022/07/24 10:13:07;;;;;;;4.10;1.50;;;;;;;23.37;44.85;100342.77;107939;1264;108692;-72
2022/07/24 10:15:51;;;;;;;2.10;1.50;;;;;;;23.38;45.19;100344.99;107881;1265;138285;-73
2022/07/24 10:18:31;;;;;;;3.20;2.00;;;;;;;23.40;45.18;100346.54;108134;1265;95708;-73
2022/07/24 10:21:10;;;;;;;1.90;1.70;;;;;;;23.46;45.44;100346.94;106734;1265;137855;-71
2022/07/24 10:24:11;;;;;;;3.40;1.80;;;;;;;23.40;45.53;100353.17;106818;1265;108002;-70
2022/07/24 10:26:45;;;;;;;2.40;1.90;;;;;;;23.34;45.97;100356.88;107504;1265;138055;-73
2022/07/24 10:29:19;;;;;;;3.50;1.70;;;;;;;23.28;46.23;100358.42;107927;1265;96180;-73
2022/07/24 10:31:54;;;;;;;2.70;1.80;;;;;;;23.16;46.37;100352.48;108126;1265;96178;-74
2022/07/24 10:34:32;;;;;;;2.50;1.80;;;;;;;23.06;46.76;100356.37;107992;1266;111521;-73
2022/07/24 10:37:12;;;;;;;2.40;1.90;;;;;;;23.11;47.18;100360.69;108154;1264;108553;-74
2022/07/24 10:39:55;;;;;;;2.70;1.40;;;;;;;23.20;47.05;100356.21;107983;1265;138419;-73
2022/07/24 10:42:27;;;;;;;3.40;1.80;;;;;;;23.29;47.39;100358.30;108168;1264;96422;-73
2022/07/24 10:45:20;;;;;;;4.40;2.00;;;;;;;23.38;47.35;100359.36;108099;1264;138611;-73
2022/07/24 10:47:57;;;;;;;2.80;1.50;;;;;;;23.46;47.29;100362.35;108151;1264;112594;-73
2022/07/24 10:51:03;;;;;;;1.70;1.60;;;;;;;23.48;47.33;100360.92;108033;1264;138324;-74
2022/07/24 10:53:50;;;;;;;2.80;1.90;;;;;;;23.45;47.25;100358.20;107933;1265;108580;-72
2022/07/24 10:56:28;;;;;;;3.70;2.00;;;;;;;23.53;47.38;100360.77;106723;1265;138073;-75
2022/07/24 10:59:07;;;;;;;2.60;1.90;;;;;;;23.65;47.36;100359.91;108106;1264;95826;-72
2022/07/24 11:01:44;;;;;;;4.60;1.50;;;;;;;23.93;47.24;100363.57;107487;1265;112489;-73
2022/07/24 11:04:31;;;;;;;3.20;1.20;;;;;;;24.16;46.56;100364.73;107169;1264;139711;-74
2022/07/24 11:07:11;;;;;;;3.30;1.40;;;;;;;24.30;46.11;100362.35;106695;1264;108941;-73
2022/07/24 11:10:00;;;;;;;3.90;1.60;;;;;;;24.47;45.75;100357.77;108001;1264;137801;-73
2022/07/24 11:12:42;;;;;;;2.20;1.80;;;;;;;24.67;45.34;100359.73;108113;1265;96174;-74
2022/07/24 11:18:17;;;;;;;5.90;1.50;;;;;;;25.13;45.01;100359.16;108012;1264;107665;-73
2022/07/24 11:20:50;;;;;;;1.60;1.30;;;;;;;25.20;44.70;100362.97;107972;1265;137794;-73
2022/07/24 11:23:22;;;;;;;4.10;1.90;;;;;;;25.29;44.29;100355.18;108154;1263;96195;-73
2022/07/24 11:26:32;;;;;;;2.80;1.50;;;;;;;25.37;44.27;100358.79;107097;1265;137952;-73
2022/07/24 11:29:23;;;;;;;4.60;1.90;;;;;;;25.64;44.23;100357.50;106573;1265;112502;-73
2022/07/24 11:31:57;;;;;;;2.00;1.40;;;;;;;25.85;43.89;100357.58;106514;1265;138021;-71
2022/07/24 11:34:31;;;;;;;5.30;1.70;;;;;;;25.99;43.78;100361.32;108084;1264;108305;-72
2022/07/24 11:37:05;;;;;;;2.10;1.60;;;;;;;26.22;43.54;100361.09;106990;1265;97946;-72
2022/07/24 11:39:45;;;;;;;2.20;1.50;;;;;;;26.28;43.20;100360.27;106625;1265;139358;-73
2022/07/24 11:42:18;;;;;;;1.90;1.50;;;;;;;26.24;42.91;100359.82;106714;1265;112504;-74
2022/07/24 11:44:52;;;;;;;5.80;2.00;;;;;;;26.22;42.89;100362.00;106629;1265;139100;-72